Latest Weather Observations for Swan Hill

IDV60801

Issued at 5:32 am EDT Saturday 19 October 2019 (issued every 10 minutes, with the page automatically refreshed every 10 minutes)

About weather observations | Map of weather stations | Latest weather observations for VIC | Other Formats
Station Details ID: 077094 Name: SWAN HILL AERODROME Lat: -35.38 Lon: 143.54 Height: 71.0 m
Data from the previous 72 hours. | See also: Recent months at Swan Hill
Date/Time
EDT
Temp
°C
App
Temp
°C
Dew
Point
°C
Rel
Hum
%
Delta-T
°C
Wind Press
QNH
hPa
Press
MSL
hPa
Rain since
9am
mm
Dir  Spd
km/h
Gust
km/h
Spd
kts
Gust
kts
19/05:30am 4.6 0.7 3.3 91 0.5 W 13 13 7 7 1015.8 1015.8 0.0
19/05:00am 5.7 2.4 4.3 91 0.6 W 11 11 6 6 1015.6 1015.6 0.0
19/04:30am 6.4 2.8 5.0 91 0.6 W 13 15 7 8 1015.5 1015.5 0.0
19/04:00am 6.8 3.3 5.3 90 0.7 WSW 13 15 7 8 1015.5 1015.5 0.0
19/03:30am 6.5 3.2 4.8 89 0.7 WSW 11 13 6 7 1015.5 1015.5 0.0
19/03:00am 6.6 3.3 4.6 87 0.9 WSW 11 11 6 6 1015.6 1015.6 0.0
19/02:30am 7.7 4.5 5.3 85 1.1 WSW 11 13 6 7 1015.4 1015.3 0.0
19/02:00am 7.9 5.1 5.2 83 1.2 WSW 9 13 5 7 1015.4 1015.3 0.0
19/01:30am 8.5 5.4 5.4 81 1.4 WSW 11 13 6 7 1015.5 1015.5 0.0
19/01:00am 9.2 6.9 5.8 79 1.6 WSW 7 9 4 5 1015.6 1015.6 0.0
19/12:30am 10.4 7.5 6.4 76 1.9 SW 11 13 6 7 1015.8 1015.8 0.0
19/12:00am 11.6 8.9 7.3 75 2.1 SW 11 15 6 8 1015.9 1015.9 0.0
 
Date/Time
EDT
Temp
°C
App
Temp
°C
Dew
Point
°C
Rel
Hum
%
Delta-T
°C
Wind Press
QNH
hPa
Press
MSL
hPa
Rain since
9am
mm
Dir  Spd
km/h
Gust
km/h
Spd
kts
Gust
kts
18/11:30pm 12.2 9.2 7.5 73 2.3 WSW 13 15 7 8 1016.1 1016.1 0.0
18/11:00pm 13.0 10.4 7.7 70 2.6 SW 11 17 6 9 1015.9 1015.9 0.0
18/10:30pm 14.0 10.2 7.5 65 3.2 SW 17 26 9 14 1015.9 1015.9 0.0
18/10:00pm 15.2 11.3 7.0 58 4.0 SW 17 26 9 14 1015.5 1015.5 0.0
18/09:30pm 17.5 10.8 3.4 39 6.6 WSW 28 39 15 21 1015.1 1015.0 0.0
18/09:00pm 18.2 12.6 1.3 32 7.6 WSW 20 28 11 15 1014.2 1014.1 0.0
18/08:30pm 19.1 13.1 1.1 30 8.1 WSW 22 30 12 16 1013.7 1013.6 0.0
18/08:00pm 20.4 12.7 -0.3 25 9.1 WSW 30 43 16 23 1012.9 1012.8 0.0
18/07:30pm 21.8 12.2 -1.5 21 10.2 WSW 39 52 21 28 1012.2 1012.1 0.0
18/07:00pm 23.1 13.7 -2.5 18 11.1 WSW 37 48 20 26 1011.5 1011.4 0.0
18/06:30pm 24.1 13.3 -5.0 14 12.1 W 43 56 23 30 1011.0 1010.9 0.0
18/06:00pm 25.7 16.6 -6.9 11 13.3 WNW 33 61 18 33 1010.4 1010.3 0.0
18/05:58pm 26.3 17.4 -7.7 10 13.8 WNW 32 52 17 28 1010.4 1010.3 0.0
18/05:30pm 26.5 16.6 -7.6 10 13.9 WNW 37 50 20 27 1010.4 1010.3 0.0
18/05:00pm 25.7 15.6 -5.8 12 13.1 NW 39 57 21 31 1010.4 1010.3 0.0
18/04:47pm 25.7 15.7 -4.7 13 12.9 NW 39 57 21 31 1010.9 1010.8 0.0
18/04:30pm 25.9 15.5 -4.6 13 13.0 NW 41 50 22 27 1011.2 1011.1 0.0
18/04:00pm 25.5 14.4 -6.0 12 13.1 NW 44 57 24 31 1011.5 1011.4 0.0
18/03:44pm 25.8 15.1 -4.7 13 13.0 NW 43 61 23 33 1012.1 1012.0 0.0
18/03:30pm 25.3 14.3 -5.1 13 12.8 NW 44 59 24 32 1012.3 1012.2 0.0
18/03:05pm 25.3 15.8 -4.1 14 12.6 NW 37 56 20 30 1012.8 1012.7 0.0
18/03:00pm 25.3 16.6 -3.2 15 12.4 NW 33 44 18 24 1013.1 1013.0 0.0
18/02:46pm 25.0 15.1 -4.3 14 12.5 NW 39 59 21 32 1013.6 1013.5 0.0
18/02:30pm 24.9 14.3 -3.5 15 12.3 NW 43 56 23 30 1013.9 1013.8 0.0
18/02:04pm 24.7 15.7 -2.8 16 12.0 NW 35 56 19 30 1014.2 1014.1 0.0
18/02:00pm 24.6 15.8 -1.3 18 11.6 NW 35 50 19 27 1014.3 1014.2 0.0
18/01:45pm 23.7 13.7 -2.0 18 11.3 NW 41 59 22 32 1014.5 1014.4 0.0
18/01:30pm 23.2 14.0 -1.0 20 10.8 WNW 37 50 20 27 1015.0 1014.9 0.0
18/01:25pm 22.9 13.6 -1.9 19 10.9 NW 37 50 20 27 1015.2 1015.1 0.0
18/01:00pm 21.8 13.4 -0.8 22 10.0 NNW 33 50 18 27 1015.4 1015.3 0.0
18/12:30pm 20.7 13.0 0.0 25 9.2 NNW 30 48 16 26 1016.3 1016.3 0.0
18/12:25pm 21.6 14.1 1.3 26 9.4 NNW 30 48 16 26 1016.4 1016.4 0.0
18/12:00pm 20.2 12.6 0.6 27 8.8 NNW 30 43 16 23 1016.9 1016.9 0.0
18/11:30am 19.2 12.9 1.7 31 8.0 N 24 35 13 19 1017.3 1017.3 0.0
18/11:00am 17.3 9.9 2.1 36 6.9 N 30 39 16 21 1017.8 1017.8 0.0
18/10:30am 16.3 10.2 2.7 40 6.2 N 24 33 13 18 1018.0 1018.0 0.0
18/10:00am 15.1 9.1 3.3 45 5.4 N 24 32 13 17 1018.2 1018.1 0.0
18/09:30am 13.6 8.4 3.7 51 4.5 NNE 20 26 11 14 1018.6 1018.5 0.0
18/09:00am 12.0 8.0 4.7 61 3.3 WSW 15 20 8 11 1018.6 1018.5 0.2
18/08:30am 9.9 6.7 5.1 72 2.2 SW 11 15 6 8 1018.6 1018.5 0.2
18/08:00am 6.7 3.9 5.3 91 0.6 SSW 9 9 5 5 1018.6 1018.5 0.2
18/07:30am 3.6 0.7 2.4 92 0.5 SSW 7 9 4 5 1018.4 1018.3 0.2
18/07:00am 2.1 -0.5 0.8 91 0.5 SSW 4 9 2 5 1018.2 1018.1 0.2
18/06:30am 1.5 -0.5 0.0 90 0.5 CALM 0 0 0 0 1017.9 1017.9 0.2
18/06:00am 2.1 0.2 0.5 89 0.6 CALM 0 0 0 0 1017.8 1017.8 0.2
18/05:30am 1.9 -0.1 0.0 87 0.7 CALM 0 0 0 0 1017.8 1017.8 0.2
18/05:00am 2.4 0.5 0.3 86 0.8 CALM 0 0 0 0 1017.9 1017.9 0.2
18/04:30am 3.1 1.2 0.8 85 0.9 CALM 0 0 0 0 1017.9 1017.9 0.2
18/04:00am 3.0 -0.2 0.7 85 0.9 SSW 7 9 4 5 1017.9 1017.9 0.2
18/03:30am 3.4 1.6 1.0 84 0.9 CALM 0 0 0 0 1017.8 1017.8 0.2
18/03:00am 4.0 2.2 1.2 82 1.1 CALM 0 0 0 0 1017.8 1017.8 0.2
18/02:30am 4.1 2.2 0.6 78 1.3 CALM 0 0 0 0 1018.2 1018.1 0.2
18/02:00am 5.7 3.2 1.4 74 1.7 SSW 4 7 2 4 1018.5 1018.4 0.2
18/01:30am 6.5 3.4 1.4 70 2.1 SSW 7 9 4 5 1018.6 1018.5 0.2
18/01:00am 7.4 3.6 1.7 67 2.3 SSW 11 15 6 8 1018.8 1018.7 0.2
18/12:30am 7.7 3.9 1.8 66 2.4 SSW 11 13 6 7 1018.8 1018.7 0.2
18/12:00am 8.1 3.9 1.9 65 2.6 SW 13 15 7 8 1018.8 1018.7 0.2
 
Date/Time
EDT
Temp
°C
App
Temp
°C
Dew
Point
°C
Rel
Hum
%
Delta-T
°C
Wind Press
QNH
hPa
Press
MSL
hPa
Rain since
9am
mm
Dir  Spd
km/h
Gust
km/h
Spd
kts
Gust
kts
17/11:30pm 8.6 4.5 2.0 63 2.8 SW 13 17 7 9 1018.8 1018.7 0.2
17/11:00pm 9.5 5.4 2.1 60 3.1 SSW 13 17 7 9 1018.8 1018.7 0.2
17/10:30pm 10.5 5.6 1.9 55 3.6 SW 17 20 9 11 1018.7 1018.6 0.2
17/10:00pm 10.7 6.1 1.8 54 3.8 SW 15 19 8 10 1018.4 1018.3 0.2
17/09:30pm 11.4 7.2 1.6 51 4.2 SW 13 20 7 11 1018.2 1018.1 0.2
17/09:00pm 12.2 8.0 1.5 48 4.6 SW 13 19 7 10 1017.5 1017.5 0.2
17/08:30pm 12.9 8.3 1.3 45 5.0 SW 15 20 8 11 1017.1 1017.1 0.2
17/08:00pm 14.3 8.7 0.2 38 5.9 SW 19 24 10 13 1016.5 1016.5 0.2
17/07:30pm 15.6 9.4 -0.6 33 6.8 WSW 22 32 12 17 1016.3 1016.3 0.2
17/07:00pm 16.7 9.7 -0.5 31 7.3 WSW 26 37 14 20 1015.8 1015.8 0.2
17/06:30pm 17.6 8.9 -0.6 29 7.8 WSW 35 46 19 25 1015.4 1015.3 0.2
17/06:00pm 17.9 9.7 0.1 30 7.8 WSW 33 48 18 26 1015.1 1015.0 0.2
17/05:33pm 18.3 9.3 0.0 29 8.0 W 37 56 20 30 1014.8 1014.7 0.2
17/05:30pm 18.6 9.6 -0.2 28 8.2 W 37 50 20 27 1014.8 1014.7 0.2
17/05:00pm 17.7 8.4 0.4 31 7.6 WSW 39 52 21 28 1014.5 1014.4 0.2
17/04:30pm 19.1 10.5 0.2 28 8.3 WSW 35 57 19 31 1014.4 1014.3 0.2
17/04:25pm 17.8 8.4 0.0 30 7.7 W 39 57 21 31 1014.3 1014.2 0.2
17/04:00pm 18.4 8.6 0.1 29 8.0 WSW 41 54 22 29 1014.2 1014.1 0.2
17/03:49pm 18.2 9.5 -0.6 28 8.1 WSW 35 54 19 29 1014.2 1014.1 0.2
17/03:30pm 18.3 8.8 -1.0 27 8.3 W 39 52 21 28 1014.3 1014.2 0.2
17/03:00pm 18.2 8.9 0.8 31 7.7 W 39 57 21 31 1014.7 1014.6 0.2
17/02:53pm 18.4 10.2 0.1 29 8.0 WSW 33 57 18 31 1014.9 1014.8 0.2
17/02:30pm 18.4 8.1 0.5 30 7.9 WSW 44 56 24 30 1015.0 1014.9 0.0
17/02:18pm 18.1 8.8 0.3 30 7.8 W 39 61 21 33 1015.0 1014.9 0.0
17/02:00pm 16.5 6.4 0.2 33 7.0 W 43 56 23 30 1015.3 1015.2 0.0
17/01:30pm 16.5 6.2 0.2 33 7.0 W 44 61 24 33 1015.0 1014.9 0.0
17/01:03pm 15.8 5.7 0.4 35 6.6 WSW 43 61 23 33 1015.1 1015.0 0.0
17/01:00pm 15.8 5.1 0.0 34 6.7 W 46 61 25 33 1015.1 1015.0 0.0
17/12:33pm 14.6 3.8 2.2 43 5.5 WSW 48 67 26 36 1015.4 1015.3 0.0
17/12:30pm 15.2 4.5 2.7 43 5.6 WSW 48 61 26 33 1015.3 1015.2 0.0
17/12:18pm 16.4 8.0 1.3 36 6.7 W 35 56 19 30 1014.9 1014.8 0.0
17/12:00pm 15.2 5.6 1.4 39 6.0 W 41 56 22 30 1015.0 1014.9 0.0
17/11:44am 15.1 5.5 0.9 38 6.1 WSW 41 59 22 32 1015.0 1014.9 0.0
17/11:30am 14.4 5.3 2.0 43 5.5 WSW 39 54 21 29 1014.9 1014.8 0.0
17/11:00am 14.2 5.6 2.8 46 5.1 WSW 37 48 20 26 1015.1 1015.0 0.0
17/10:50am 13.9 6.1 2.8 47 4.9 WSW 33 54 18 29 1014.8 1014.7 0.0
17/10:30am 13.0 5.3 3.4 52 4.3 WSW 33 48 18 26 1015.0 1014.9 0.0
17/10:00am 12.4 4.1 4.1 57 3.8 WSW 37 48 20 26 1015.0 1014.9 0.0
17/09:30am 11.3 2.5 3.8 60 3.3 W 39 48 21 26 1014.6 1014.5 0.0
17/09:00am 10.9 3.2 5.4 69 2.5 W 35 43 19 23 1014.5 1014.4 5.0
17/08:30am 10.1 3.1 5.9 75 1.9 W 32 37 17 20 1014.1 1014.0 5.0
17/08:00am 9.0 2.7 5.7 80 1.5 W 28 37 15 20 1013.8 1013.7 5.0
17/07:30am 8.1 2.5 5.6 84 1.1 WNW 24 32 13 17 1013.5 1013.4 5.0
17/07:00am 7.5 2.7 5.5 87 0.9 WNW 20 26 11 14 1012.8 1012.7 5.0
17/06:30am 7.6 2.4 5.6 87 0.9 W 22 28 12 15 1012.4 1012.3 5.0
17/06:00am 7.9 2.7 5.7 86 1.0 WNW 22 28 12 15 1012.0 1011.9 5.0
17/05:30am 8.2 3.1 6.0 86 1.0 WNW 22 30 12 16 1011.6 1011.5 5.0
17/05:00am 8.5 3.9 6.6 88 0.9 W 20 26 11 14 1011.4 1011.3 5.0
17/04:30am 8.7 4.2 7.0 89 0.8 W 20 26 11 14 1011.3 1011.2 5.0
17/04:00am 9.0 4.5 6.8 86 1.0 W 20 28 11 15 1011.2 1011.1 5.0
17/03:30am 9.6 4.7 6.9 83 1.3 W 22 30 12 16 1011.3 1011.2 5.0
17/03:00am 9.6 4.1 6.0 78 1.7 W 24 30 13 16 1011.5 1011.4 5.0
17/02:30am 8.7 4.0 5.3 79 1.5 W 19 24 10 13 1011.4 1011.3 5.0
17/02:00am 8.8 4.1 5.0 77 1.7 W 19 24 10 13 1011.4 1011.3 5.0
17/01:30am 8.2 4.8 5.7 84 1.1 NW 13 17 7 9 1011.6 1011.5 5.0
17/01:00am 8.1 5.2 4.9 80 1.4 NW 9 11 5 6 1011.6 1011.5 5.0
17/12:30am 10.1 6.7 6.1 76 1.9 WSW 13 19 7 10 1011.8 1011.7 5.0
17/12:00am 9.6 7.1 6.5 81 1.4 WSW 9 13 5 7 1011.7 1011.6 5.0
 
Date/Time
EDT
Temp
°C
App
Temp
°C
Dew
Point
°C
Rel
Hum
%
Delta-T
°C
Wind Press
QNH
hPa
Press
MSL
hPa
Rain since
9am
mm
Dir  Spd
km/h
Gust
km/h
Spd
kts
Gust
kts
16/11:30pm 11.1 8.4 7.2 77 1.9 WSW 11 13 6 7 1011.7 1011.6 5.0
16/11:00pm 12.8 9.7 7.3 69 2.7 WSW 13 17 7 9 1011.6 1011.5 5.0
16/10:30pm 15.0 10.6 7.3 60 3.8 WSW 20 26 11 14 1011.5 1011.4 5.0
16/10:00pm 15.3 13.0 11.7 79 2.0 W 15 17 8 9 1011.4 1011.3 5.0
16/09:30pm 14.6 13.4 11.7 83 1.6 NW 9 11 5 6 1011.0 1010.9 5.0
16/09:00pm 14.7 13.1 11.5 81 1.7 NNW 11 13 6 7 1011.0 1010.9 5.0
16/08:30pm 15.4 12.8 10.8 74 2.4 NNW 15 17 8 9 1010.4 1010.3 5.0
16/08:00pm 15.6 13.5 11.2 75 2.4 N 13 15 7 8 1010.0 1009.9 5.0
16/07:30pm 15.6 13.3 10.6 72 2.7 N 13 17 7 9 1009.9 1009.8 5.0
16/07:00pm 16.8 14.6 10.9 68 3.2 N 13 15 7 8 1009.7 1009.6 5.0
16/06:30pm 17.8 15.5 10.4 62 4.0 N 13 19 7 10 1009.5 1009.4 5.0
16/06:00pm 17.9 16.6 11.2 65 3.7 N 9 13 5 7 1009.4 1009.3 5.0
16/05:30pm 17.8 17.2 12.3 70 3.1 SW 7 9 4 5 1009.3 1009.2 5.0
16/05:00pm 16.8 16.2 11.7 72 2.8 SW 6 7 3 4 1009.4 1009.3 5.0
16/04:30pm 16.7 16.8 11.4 71 2.9 SSW 2 7 1 4 1009.3 1009.2 5.0
16/04:00pm 15.6 16.2 11.8 78 2.1 CALM 0 0 0 0 1009.5 1009.4 5.0
16/03:30pm 15.0 15.1 11.4 79 1.9 SSW 2 7 1 4 1010.2 1010.1 4.8
16/03:00pm 14.5 14.4 12.2 86 1.3 SSW 4 7 2 4 1010.6 1010.5 4.6
16/02:30pm 14.1 13.5 11.8 86 1.2 SW 6 9 3 5 1011.5 1011.4 4.0
16/02:00pm 14.5 12.9 11.5 82 1.6 SSW 11 17 6 9 1011.4 1011.3 2.2
16/01:30pm 15.2 13.7 12.0 81 1.7 SSW 11 17 6 9 1011.6 1011.5 1.6
16/01:00pm 15.4 13.4 11.4 77 2.2 S 13 20 7 11 1011.6 1011.5 1.4
16/12:30pm 14.9 13.1 12.0 83 1.6 SSW 13 20 7 11 1011.5 1011.4 1.2
16/12:00pm 15.3 13.4 11.7 79 2.0 S 13 19 7 10 1011.7 1011.6 0.4
16/11:30am 16.9 13.7 9.8 63 3.7 SSW 17 28 9 15 1011.3 1011.2 0.0
16/11:00am 19.6 16.1 7.4 45 6.2 SSW 15 24 8 13 1011.7 1011.6 0.0
16/10:30am 20.0 16.5 7.1 43 6.6 SSW 15 22 8 12 1012.2 1012.1 0.0
16/10:00am 19.8 17.0 6.9 43 6.5 S 11 17 6 9 1012.2 1012.1 0.0
16/09:30am 18.4 16.4 7.2 48 5.7 SE 7 13 4 7 1011.2 1011.1 0.0
16/09:00am 16.5 13.7 6.9 53 4.8 SE 11 17 6 9 1011.3 1011.2 0.0
16/08:30am 15.4 13.4 7.2 58 4.1 S 7 11 4 6 1011.2 1011.1 0.0
16/08:00am 13.6 11.2 6.9 64 3.3 SSE 9 11 5 6 1011.4 1011.3 0.0
16/07:30am 12.7 10.2 6.7 67 2.9 SSE 9 11 5 6 1011.5 1011.4 0.0
16/07:00am 11.9 9.3 6.0 67 2.8 SSE 9 9 5 5 1011.0 1010.9 0.0
16/06:30am 12.3 10.0 5.9 65 3.0 SSE 7 11 4 6 1010.8 1010.7 0.0
16/06:00am 13.2 11.0 6.3 63 3.3 SSE 7 11 4 6 1010.9 1010.8 0.0

Other formats

Comma delimited format used in spreadsheet applications
http://www.bom.gov.au/fwo/IDV60801/IDV60801.94843.axf

JavaScript Object Notation format (JSON) in row-major order
http://www.bom.gov.au/fwo/IDV60801/IDV60801.94843.json

Data quality

Most of these data are generated automatically and are frequently updated. Quality checks on data are not normally performed. It is possible for incorrect values to appear. Refer to information at About Latest Weather Observations and please check the disclaimer before using these data.